createdAt,value
2023-11-15T00:01:35.833Z,11.12
2023-11-15T00:04:04.801Z,11.08
2023-11-15T00:06:33.113Z,11.74
2023-11-15T00:09:01.597Z,12.31
2023-11-15T00:11:29.956Z,12.63
2023-11-15T00:13:58.647Z,12.80
2023-11-15T00:16:27.168Z,12.97
2023-11-15T00:18:55.812Z,13.16
2023-11-15T00:21:24.137Z,13.00
2023-11-15T00:23:52.381Z,12.20
2023-11-15T00:26:21.122Z,11.46
2023-11-15T00:28:56.908Z,10.89
2023-11-15T00:31:27.437Z,11.24
2023-11-15T00:33:55.992Z,12.30
2023-11-15T00:36:24.485Z,12.88
2023-11-15T00:38:52.891Z,13.16
2023-11-15T00:41:21.427Z,13.68
2023-11-15T00:43:50.148Z,14.09
2023-11-15T00:46:18.492Z,13.44
2023-11-15T00:48:46.659Z,12.46
2023-11-15T00:51:14.897Z,11.67
2023-11-15T00:53:43.790Z,11.10
2023-11-15T00:56:12.673Z,11.51
2023-11-15T00:58:42.812Z,12.63
2023-11-15T01:01:12.496Z,13.54
2023-11-15T01:03:57.579Z,14.06
2023-11-15T01:06:26.618Z,14.30
2023-11-15T01:08:56.341Z,13.42
2023-11-15T01:11:27.670Z,12.37
2023-11-15T01:13:56.604Z,11.63
2023-11-15T01:16:25.512Z,11.10
2023-11-15T01:18:56.816Z,10.99
2023-11-15T01:21:25.126Z,11.99
2023-11-15T01:23:54.013Z,12.96
2023-11-15T01:26:22.378Z,13.62
2023-11-15T01:28:51.663Z,13.36
2023-11-15T01:31:20.032Z,12.35
2023-11-15T01:33:48.460Z,11.60
2023-11-15T01:36:17.391Z,11.02
2023-11-15T01:38:45.713Z,10.59
2023-11-15T01:41:13.975Z,10.51
2023-11-15T01:43:42.125Z,11.60
2023-11-15T01:46:10.879Z,12.77
2023-11-15T01:48:39.398Z,13.55
2023-11-15T01:51:10.405Z,13.99
2023-11-15T01:53:40.316Z,14.08
2023-11-15T01:56:09.545Z,13.24
2023-11-15T01:58:37.873Z,12.28
2023-11-15T02:01:06.820Z,11.56
2023-11-15T02:03:35.397Z,11.02
2023-11-15T02:06:04.650Z,10.70
2023-11-15T02:08:34.005Z,11.50
2023-11-15T02:11:02.511Z,12.66
2023-11-15T02:13:30.958Z,13.46
2023-11-15T02:16:02.634Z,13.91
2023-11-15T02:18:31.149Z,13.88
2023-11-15T02:20:59.739Z,13.03
2023-11-15T02:23:28.371Z,12.07
2023-11-15T02:25:56.696Z,11.38
2023-11-15T02:28:25.129Z,11.07
2023-11-15T02:30:53.562Z,11.90
2023-11-15T02:33:22.099Z,12.83
2023-11-15T02:35:50.622Z,13.37
2023-11-15T02:38:18.857Z,13.67
2023-11-15T02:40:47.513Z,13.01
2023-11-15T02:43:15.797Z,12.08
2023-11-15T02:45:47.463Z,11.42
2023-11-15T02:48:16.037Z,10.92
2023-11-15T02:50:45.154Z,11.26
2023-11-15T02:53:13.531Z,12.30
2023-11-15T02:55:42.012Z,12.82
2023-11-15T02:58:10.251Z,12.98
2023-11-15T03:00:39.356Z,13.11
2023-11-15T03:03:08.034Z,13.26
2023-11-15T03:05:36.704Z,13.36
2023-11-15T03:08:07.074Z,13.51
2023-11-15T03:10:35.553Z,13.59
2023-11-15T03:13:05.030Z,13.58
2023-11-15T03:15:33.402Z,12.95
2023-11-15T03:18:22.267Z,12.09
2023-11-15T03:20:51.078Z,11.32
2023-11-15T03:23:21.071Z,11.15
2023-11-15T03:25:56.620Z,11.88
2023-11-15T03:28:25.183Z,12.47
2023-11-15T03:30:53.467Z,12.75
2023-11-15T03:33:22.160Z,13.21
2023-11-15T03:35:51.152Z,13.66
2023-11-15T03:38:19.899Z,13.81
2023-11-15T03:40:49.126Z,13.75
2023-11-15T03:43:17.334Z,13.77
2023-11-15T03:45:45.616Z,13.77
2023-11-15T03:48:13.984Z,13.78
2023-11-15T03:50:45.419Z,13.73
2023-11-15T03:53:14.085Z,13.72
2023-11-15T03:55:45.276Z,13.68
2023-11-15T03:58:14.540Z,13.67
2023-11-15T04:00:43.668Z,13.67
2023-11-15T04:03:12.543Z,13.66
2023-11-15T04:05:41.100Z,13.68
2023-11-15T04:08:10.646Z,13.69
2023-11-15T04:10:39.077Z,13.61
2023-11-15T04:13:07.352Z,13.59
2023-11-15T04:15:35.627Z,13.58
2023-11-15T04:18:04.221Z,13.58
2023-11-15T04:20:33.235Z,13.51
2023-11-15T04:23:01.623Z,13.44
2023-11-15T04:25:29.966Z,13.52
2023-11-15T04:27:59.108Z,13.53
2023-11-15T04:30:28.249Z,13.57
2023-11-15T04:32:56.498Z,13.68
2023-11-15T04:35:25.045Z,13.88
2023-11-15T04:37:53.486Z,13.86
2023-11-15T04:40:22.376Z,13.81
2023-11-15T04:42:50.983Z,13.73
2023-11-15T04:45:19.148Z,13.78
2023-11-15T04:47:47.708Z,13.88
2023-11-15T04:50:17.364Z,13.80
2023-11-15T04:52:45.634Z,13.75
2023-11-15T04:55:13.885Z,13.79
2023-11-15T04:57:41.945Z,13.77
2023-11-15T05:00:14.151Z,13.77
2023-11-15T05:02:42.702Z,13.70
2023-11-15T05:05:12.166Z,13.63
2023-11-15T05:07:40.709Z,13.52
2023-11-15T05:10:11.184Z,13.56
2023-11-15T05:12:39.689Z,13.60
2023-11-15T05:15:08.826Z,13.58
2023-11-15T05:17:37.881Z,13.46
2023-11-15T05:20:07.585Z,13.43
2023-11-15T05:22:36.064Z,13.42
2023-11-15T05:25:07.241Z,13.47
2023-11-15T05:27:35.900Z,13.55
2023-11-15T05:30:04.892Z,13.53
2023-11-15T05:32:33.129Z,13.40
2023-11-15T05:35:01.846Z,13.43
2023-11-15T05:37:30.120Z,13.46
2023-11-15T05:39:58.498Z,13.49
2023-11-15T05:42:26.767Z,13.44
2023-11-15T05:44:55.103Z,13.48
2023-11-15T05:47:26.834Z,13.44
2023-11-15T05:49:55.501Z,13.54
2023-11-15T05:52:23.933Z,13.55
2023-11-15T05:54:59.579Z,13.52
2023-11-15T05:57:28.512Z,13.57
2023-11-15T05:59:56.704Z,13.57
2023-11-15T06:02:25.205Z,13.54
2023-11-15T06:04:54.102Z,13.49
2023-11-15T06:07:22.429Z,13.47
2023-11-15T06:09:52.036Z,13.30
2023-11-15T06:12:21.381Z,13.34
2023-11-15T06:14:49.764Z,13.49
2023-11-15T06:17:18.710Z,13.56
2023-11-15T06:19:52.097Z,13.56
2023-11-15T06:22:24.611Z,13.59
2023-11-15T06:24:53.868Z,13.48
2023-11-15T06:27:23.313Z,13.63
2023-11-15T06:29:59.393Z,13.61
2023-11-15T06:32:28.719Z,13.69
2023-11-15T06:34:57.723Z,13.77
2023-11-15T06:37:25.990Z,13.74
2023-11-15T06:39:54.385Z,13.72
2023-11-15T06:42:23.172Z,13.73
2023-11-15T06:44:51.464Z,13.59
2023-11-15T06:47:20.634Z,13.72
2023-11-15T06:49:49.023Z,13.83
2023-11-15T06:52:17.301Z,13.75
2023-11-15T06:54:47.726Z,13.77
2023-11-15T06:57:16.196Z,13.88
2023-11-15T06:59:44.795Z,13.97
2023-11-15T07:02:13.089Z,13.76
2023-11-15T07:04:48.837Z,13.82
2023-11-15T07:07:17.179Z,13.77
2023-11-15T07:09:45.467Z,13.80
2023-11-15T07:12:14.656Z,13.77
2023-11-15T07:14:46.210Z,13.75
2023-11-15T07:17:19.702Z,13.83
2023-11-15T07:19:49.302Z,13.77
2023-11-15T07:22:17.513Z,13.46
2023-11-15T07:24:45.864Z,13.30
2023-11-15T07:27:14.379Z,13.41
2023-11-15T07:29:42.732Z,13.40
2023-11-15T07:32:10.997Z,13.45
2023-11-15T07:34:42.085Z,13.56
2023-11-15T07:37:10.426Z,13.59
2023-11-15T07:39:38.684Z,13.81
2023-11-15T07:42:07.205Z,13.92
2023-11-15T07:44:36.866Z,13.89
2023-11-15T07:47:05.823Z,13.81
2023-11-15T07:49:43.354Z,13.87
2023-11-15T07:52:14.499Z,14.00
2023-11-15T07:54:42.894Z,14.02
2023-11-15T07:57:11.383Z,14.04
2023-11-15T07:59:39.583Z,14.16
2023-11-15T08:02:08.011Z,14.30
2023-11-15T08:04:36.712Z,14.37
2023-11-15T08:07:05.619Z,14.19
2023-11-15T08:09:34.103Z,14.05
2023-11-15T08:12:02.906Z,14.12
2023-11-15T08:14:33.272Z,13.91
2023-11-15T08:17:03.137Z,13.78
2023-11-15T08:19:31.576Z,13.84
2023-11-15T08:21:59.947Z,14.00
2023-11-15T08:24:29.117Z,14.09
2023-11-15T08:26:57.737Z,14.00
2023-11-15T08:29:26.413Z,13.90
2023-11-15T08:31:54.594Z,14.00
2023-11-15T08:34:24.227Z,14.00
2023-11-15T08:36:53.138Z,14.18
2023-11-15T08:39:23.433Z,14.25
2023-11-15T08:41:51.817Z,14.28
2023-11-15T08:44:20.264Z,14.42
2023-11-15T08:46:49.595Z,14.62
2023-11-15T08:49:18.337Z,14.71
2023-11-15T08:51:48.755Z,14.65
2023-11-15T08:54:17.725Z,14.68
2023-11-15T08:56:47.060Z,14.77
2023-11-15T08:59:16.819Z,14.71
2023-11-15T09:01:46.728Z,14.37
2023-11-15T09:04:17.870Z,14.32
2023-11-15T09:06:49.347Z,14.26
2023-11-15T09:09:18.816Z,14.25
2023-11-15T09:11:48.974Z,14.11
2023-11-15T09:14:17.658Z,14.14
2023-11-15T09:16:49.131Z,14.19
2023-11-15T09:19:22.579Z,14.22
2023-11-15T09:21:52.377Z,14.17
2023-11-15T09:24:23.690Z,13.88
2023-11-15T09:26:52.910Z,13.87
2023-11-15T09:29:21.440Z,13.86
2023-11-15T09:31:51.436Z,13.82
2023-11-15T09:34:27.958Z,13.86
2023-11-15T09:36:56.950Z,14.00
2023-11-15T09:39:25.230Z,13.98
2023-11-15T09:41:57.754Z,14.06
2023-11-15T09:44:27.508Z,14.24
2023-11-15T09:47:00.222Z,14.36
2023-11-15T09:49:28.698Z,14.40
2023-11-15T09:51:58.377Z,14.35
2023-11-15T09:54:27.684Z,14.33
2023-11-15T09:56:58.379Z,14.57
2023-11-15T09:59:28.135Z,14.67
2023-11-15T10:01:58.670Z,14.56
2023-11-15T10:04:29.389Z,14.65
2023-11-15T10:07:05.390Z,14.53
2023-11-15T10:09:44.242Z,14.40
2023-11-15T10:12:12.524Z,14.37
2023-11-15T10:14:56.124Z,14.39
2023-11-15T10:17:40.798Z,14.47
2023-11-15T10:20:23.499Z,14.47
2023-11-15T10:22:54.129Z,14.50
2023-11-15T10:25:33.208Z,14.60
2023-11-15T10:28:08.574Z,14.64
2023-11-15T10:30:36.829Z,14.70
2023-11-15T10:33:15.597Z,14.64
2023-11-15T10:35:44.897Z,14.52
2023-11-15T10:38:19.844Z,14.52
2023-11-15T10:41:09.755Z,14.52
2023-11-15T10:43:37.893Z,14.39
2023-11-15T10:46:07.173Z,14.42
2023-11-15T10:48:35.496Z,14.35
2023-11-15T10:51:08.508Z,14.23
2023-11-15T10:53:39.969Z,14.19
2023-11-15T10:56:10.927Z,14.15
2023-11-15T10:58:41.308Z,14.11
2023-11-15T11:01:13.960Z,14.12
2023-11-15T11:03:42.794Z,14.28
2023-11-15T11:06:55.123Z,14.37
2023-11-15T11:09:41.337Z,14.62
2023-11-15T11:12:12.551Z,14.74
2023-11-15T11:14:41.653Z,14.77
2023-11-15T11:17:39.125Z,14.62
2023-11-15T11:20:28.357Z,14.62
2023-11-15T11:23:12.271Z,14.63
2023-11-15T11:25:43.811Z,14.82
2023-11-15T11:28:13.722Z,14.81
2023-11-15T11:30:46.106Z,14.78
2023-11-15T11:33:17.319Z,14.75
2023-11-15T11:35:57.155Z,14.73
2023-11-15T11:38:44.806Z,14.71
2023-11-15T11:41:14.344Z,14.55
2023-11-15T11:44:06.123Z,14.62
2023-11-15T11:46:34.664Z,14.70
2023-11-15T11:49:03.500Z,14.76
2023-11-15T11:51:31.623Z,14.54
2023-11-15T11:54:00.933Z,14.49
2023-11-15T11:56:29.815Z,14.46
2023-11-15T11:59:09.204Z,14.35
2023-11-15T12:01:48.657Z,14.32
2023-11-15T12:04:17.137Z,14.61
2023-11-15T12:06:46.252Z,14.68
2023-11-15T12:09:23.870Z,14.78
2023-11-15T12:11:52.152Z,14.86
2023-11-15T12:14:21.005Z,14.88
2023-11-15T12:16:49.825Z,14.97
2023-11-15T12:19:26.018Z,14.95
2023-11-15T12:21:55.885Z,15.01
2023-11-15T12:24:26.285Z,15.04
2023-11-15T12:26:59.544Z,15.09
2023-11-15T12:29:29.193Z,14.89
2023-11-15T12:31:57.983Z,14.83
2023-11-15T12:34:26.368Z,14.83
2023-11-15T12:36:57.403Z,14.85
2023-11-15T12:39:39.245Z,14.93
2023-11-15T12:42:28.896Z,14.93
2023-11-15T12:44:57.112Z,14.90
2023-11-15T12:47:25.505Z,14.80
2023-11-15T12:49:53.811Z,14.70
2023-11-15T12:52:42.632Z,14.59
2023-11-15T12:55:18.184Z,14.51
2023-11-15T12:57:55.534Z,14.56
2023-11-15T13:00:30.201Z,14.64
2023-11-15T13:02:59.066Z,14.55
2023-11-15T13:05:30.400Z,14.44
2023-11-15T13:07:58.822Z,14.49
2023-11-15T13:10:27.605Z,14.50
2023-11-15T13:12:58.519Z,14.60
2023-11-15T13:15:27.879Z,14.52
2023-11-15T13:17:56.604Z,14.56
2023-11-15T13:20:25.114Z,14.49
2023-11-15T13:22:53.189Z,14.35
2023-11-15T13:25:21.395Z,14.16
2023-11-15T13:27:49.735Z,14.24
2023-11-15T13:30:18.124Z,14.13
2023-11-15T13:32:46.661Z,14.13
2023-11-15T13:35:15.500Z,13.97
2023-11-15T13:37:44.173Z,14.05
2023-11-15T13:40:14.515Z,13.99
2023-11-15T13:42:45.819Z,13.87
2023-11-15T13:45:15.745Z,14.03
2023-11-15T13:47:49.804Z,14.12
2023-11-15T13:50:18.279Z,13.79
2023-11-15T13:52:46.549Z,13.71
2023-11-15T13:55:26.886Z,13.83
2023-11-15T13:57:55.458Z,13.71
2023-11-15T14:00:34.699Z,13.69
2023-11-15T14:03:07.973Z,13.74
2023-11-15T14:05:38.218Z,13.74
2023-11-15T14:08:12.528Z,13.51
2023-11-15T14:10:41.549Z,13.52
2023-11-15T14:13:12.694Z,13.55
2023-11-15T14:15:42.737Z,13.63
2023-11-15T14:18:12.230Z,13.76
2023-11-15T14:20:40.675Z,13.84
2023-11-15T14:23:09.135Z,13.78
2023-11-15T14:25:38.232Z,13.68
2023-11-15T14:28:06.715Z,13.72
2023-11-15T14:30:35.065Z,13.77
2023-11-15T14:33:06.941Z,13.72
2023-11-15T14:35:56.494Z,13.45
2023-11-15T14:38:24.793Z,13.40
2023-11-15T14:40:53.956Z,13.45
2023-11-15T14:43:22.293Z,13.48
2023-11-15T14:45:51.679Z,13.50
2023-11-15T14:48:20.202Z,13.50
2023-11-15T14:50:48.903Z,13.50
2023-11-15T14:53:31.461Z,13.50
2023-11-15T14:56:01.119Z,13.46
2023-11-15T14:58:32.751Z,13.41
2023-11-15T15:01:01.226Z,13.38
2023-11-15T15:03:29.663Z,13.50
2023-11-15T15:06:02.092Z,13.57
2023-11-15T15:08:31.074Z,13.60
2023-11-15T15:11:00.075Z,13.47
2023-11-15T15:13:28.501Z,13.43
2023-11-15T15:15:56.728Z,13.31
2023-11-15T15:18:34.221Z,13.18
2023-11-15T15:21:05.230Z,12.98
2023-11-15T15:23:34.308Z,13.02
2023-11-15T15:26:03.968Z,13.09
2023-11-15T15:28:35.101Z,13.06
2023-11-15T15:31:04.612Z,13.02
2023-11-15T15:33:36.172Z,12.88
2023-11-15T15:36:06.085Z,12.89
2023-11-15T15:38:34.600Z,12.83
2023-11-15T15:41:05.441Z,12.74
2023-11-15T15:43:34.124Z,12.78
2023-11-15T15:46:02.837Z,12.66
2023-11-15T15:48:31.938Z,12.67
2023-11-15T15:51:00.313Z,12.52
2023-11-15T15:53:28.801Z,12.52
2023-11-15T15:55:58.341Z,12.57
2023-11-15T15:58:26.749Z,12.46
2023-11-15T16:00:55.028Z,12.47
2023-11-15T16:03:24.211Z,12.45
2023-11-15T16:05:52.608Z,12.40
2023-11-15T16:08:21.189Z,12.36
2023-11-15T16:10:52.148Z,12.45
2023-11-15T16:13:20.427Z,12.44
2023-11-15T16:15:49.010Z,12.46
2023-11-15T16:18:18.537Z,12.42
2023-11-15T16:20:47.895Z,12.40
2023-11-15T16:23:16.209Z,12.44
2023-11-15T16:25:44.637Z,12.42
2023-11-15T16:28:14.357Z,12.36
2023-11-15T16:30:42.767Z,12.20
2023-11-15T16:33:11.277Z,12.20
2023-11-15T16:35:40.844Z,12.29
2023-11-15T16:38:09.291Z,12.29
2023-11-15T16:40:40.641Z,12.28
2023-11-15T16:43:12.806Z,12.33
2023-11-15T16:45:41.882Z,12.29
2023-11-15T16:48:11.190Z,12.23
2023-11-15T16:50:41.824Z,12.02
2023-11-15T16:53:11.780Z,12.02
2023-11-15T16:55:41.960Z,12.01
2023-11-15T16:58:12.391Z,11.85
2023-11-15T17:00:43.831Z,11.92
2023-11-15T17:03:12.734Z,11.94
2023-11-15T17:05:41.208Z,11.92
2023-11-15T17:08:09.912Z,11.93
2023-11-15T17:10:38.387Z,12.12
2023-11-15T17:13:07.839Z,12.10
2023-11-15T17:15:37.127Z,12.27
2023-11-15T17:18:06.703Z,12.29
2023-11-15T17:20:40.699Z,12.27
2023-11-15T17:23:09.688Z,12.28
2023-11-15T17:25:38.206Z,12.27
2023-11-15T17:28:07.065Z,12.46
2023-11-15T17:30:36.148Z,12.48
2023-11-15T17:33:04.561Z,12.26
2023-11-15T17:35:33.114Z,12.23
2023-11-15T17:38:01.590Z,12.32
2023-11-15T17:40:32.399Z,12.15
2023-11-15T17:43:01.436Z,12.09
2023-11-15T17:45:29.839Z,12.20
2023-11-15T17:47:58.946Z,11.97
2023-11-15T17:50:29.144Z,11.87
2023-11-15T17:52:59.480Z,11.99
2023-11-15T17:55:28.009Z,11.90
2023-11-15T17:57:57.714Z,11.89
2023-11-15T18:00:26.262Z,11.88
2023-11-15T18:02:54.645Z,11.86
2023-11-15T18:05:23.593Z,11.85
2023-11-15T18:07:52.360Z,11.87
2023-11-15T18:10:27.341Z,11.84
2023-11-15T18:12:56.483Z,11.78
2023-11-15T18:15:25.495Z,11.80
2023-11-15T18:17:55.118Z,11.75
2023-11-15T18:20:23.679Z,11.76
2023-11-15T18:22:52.388Z,11.79
2023-11-15T18:25:20.642Z,11.74
2023-11-15T18:27:49.038Z,11.71
2023-11-15T18:30:20.239Z,11.67
2023-11-15T18:32:49.492Z,11.67
2023-11-15T18:35:18.337Z,11.76
2023-11-15T18:37:46.818Z,11.71
2023-11-15T18:40:18.754Z,11.58
2023-11-15T18:42:47.127Z,11.77
2023-11-15T18:45:15.778Z,11.70
2023-11-15T18:47:45.514Z,11.46
2023-11-15T18:50:16.063Z,11.48
2023-11-15T18:52:50.273Z,11.51
2023-11-15T18:55:19.720Z,11.47
2023-11-15T18:57:48.795Z,11.63
2023-11-15T19:00:23.386Z,11.39
2023-11-15T19:02:52.139Z,11.40
2023-11-15T19:05:43.530Z,11.38
2023-11-15T19:08:13.070Z,11.49
2023-11-15T19:10:41.808Z,11.56
2023-11-15T19:13:10.905Z,11.50
2023-11-15T19:15:39.416Z,11.54
2023-11-15T19:18:28.564Z,11.39
2023-11-15T19:20:59.311Z,11.23
2023-11-15T19:23:27.872Z,10.99
2023-11-15T19:25:56.854Z,10.97
2023-11-15T19:28:26.292Z,10.95
2023-11-15T19:30:55.199Z,10.91
2023-11-15T19:33:23.661Z,10.77
2023-11-15T19:35:52.265Z,10.77
2023-11-15T19:38:21.202Z,10.77
2023-11-15T19:40:49.675Z,10.74
2023-11-15T19:43:18.266Z,10.70
2023-11-15T19:45:48.805Z,10.67
2023-11-15T19:48:17.542Z,10.69
2023-11-15T19:50:46.268Z,10.91
2023-11-15T19:53:14.951Z,10.86
2023-11-15T19:55:43.531Z,10.81
2023-11-15T19:58:12.831Z,10.82
2023-11-15T20:00:42.494Z,10.85
2023-11-15T20:03:11.877Z,10.76
2023-11-15T20:05:41.402Z,10.75
2023-11-15T20:08:10.408Z,10.70
2023-11-15T20:10:39.226Z,10.69
2023-11-15T20:13:08.629Z,10.69
2023-11-15T20:15:38.433Z,10.84
2023-11-15T20:18:07.240Z,10.89
2023-11-15T20:20:35.846Z,10.86
2023-11-15T20:23:04.493Z,10.61
2023-11-15T20:25:34.816Z,10.42
2023-11-15T20:28:04.324Z,10.40
2023-11-15T20:30:32.748Z,10.26
2023-11-15T20:33:01.052Z,10.43
2023-11-15T20:35:29.903Z,10.33
2023-11-15T20:38:01.451Z,10.36
2023-11-15T20:40:30.707Z,10.33
2023-11-15T20:42:58.993Z,10.50
2023-11-15T20:45:27.930Z,10.40
2023-11-15T20:47:56.703Z,10.28
2023-11-15T20:50:26.189Z,10.35
2023-11-15T20:52:54.550Z,10.45
2023-11-15T20:55:25.345Z,10.38
2023-11-15T20:58:00.337Z,10.44
2023-11-15T21:00:31.046Z,10.67
2023-11-15T21:02:59.714Z,10.67
2023-11-15T21:05:28.979Z,10.65
2023-11-15T21:07:57.527Z,10.64
2023-11-15T21:10:26.516Z,10.63
2023-11-15T21:12:55.612Z,10.49
2023-11-15T21:15:24.026Z,10.50
2023-11-15T21:17:52.446Z,10.63
2023-11-15T21:20:20.737Z,10.62
2023-11-15T21:22:49.327Z,10.63
2023-11-15T21:25:17.692Z,10.70
2023-11-15T21:27:46.293Z,10.76
2023-11-15T21:30:14.792Z,10.83
2023-11-15T21:32:43.873Z,10.86
2023-11-15T21:35:12.795Z,10.75
2023-11-15T21:37:42.616Z,10.72
2023-11-15T21:40:15.362Z,10.66
2023-11-15T21:42:45.873Z,10.60
2023-11-15T21:45:15.440Z,10.59
2023-11-15T21:47:47.858Z,10.36
2023-11-15T21:50:16.571Z,10.17
2023-11-15T21:52:44.990Z,10.08
2023-11-15T21:55:13.747Z,9.88
2023-11-15T21:57:42.571Z,9.85
2023-11-15T22:00:16.609Z,10.01
2023-11-15T22:02:44.894Z,10.09
2023-11-15T22:05:13.187Z,10.02
2023-11-15T22:07:41.518Z,10.12
2023-11-15T22:10:10.951Z,10.10
2023-11-15T22:12:40.508Z,10.14
2023-11-15T22:15:10.584Z,10.29
2023-11-15T22:17:40.718Z,10.30
2023-11-15T22:20:11.992Z,10.09
2023-11-15T22:22:43.361Z,10.07
2023-11-15T22:25:11.727Z,10.17
2023-11-15T22:27:40.111Z,10.11
2023-11-15T22:30:10.532Z,10.07
2023-11-15T22:32:39.794Z,9.77
2023-11-15T22:35:13.050Z,9.62
2023-11-15T22:37:41.414Z,9.63
2023-11-15T22:40:11.131Z,9.84
2023-11-15T22:42:40.315Z,9.63
2023-11-15T22:45:10.325Z,9.42
2023-11-15T22:47:38.634Z,9.57
2023-11-15T22:50:08.075Z,9.48
2023-11-15T22:52:36.416Z,9.36
2023-11-15T22:55:06.813Z,9.34
2023-11-15T22:57:35.261Z,9.39
2023-11-15T23:00:05.908Z,9.54
2023-11-15T23:02:34.992Z,9.58
2023-11-15T23:05:04.447Z,9.64
2023-11-15T23:07:44.160Z,9.60
2023-11-15T23:10:12.636Z,9.37
2023-11-15T23:12:42.405Z,9.36
2023-11-15T23:15:12.631Z,9.31
2023-11-15T23:17:41.936Z,9.38
2023-11-15T23:20:11.686Z,9.37
2023-11-15T23:22:41.073Z,9.29
2023-11-15T23:25:09.597Z,9.31
2023-11-15T23:27:41.056Z,9.37
2023-11-15T23:30:10.335Z,9.29
2023-11-15T23:32:38.546Z,9.11
2023-11-15T23:35:09.229Z,9.17
2023-11-15T23:37:37.494Z,9.13
2023-11-15T23:40:12.983Z,9.14
2023-11-15T23:42:41.415Z,9.21
2023-11-15T23:45:10.324Z,9.39
2023-11-15T23:47:38.730Z,9.46
2023-11-15T23:50:08.893Z,9.44
2023-11-15T23:52:37.591Z,9.57
2023-11-15T23:55:07.131Z,9.49
2023-11-15T23:57:35.497Z,9.56
